Chiang Mai, Thailand

5:24 AM ICT on December 11, 2016 (GMT +0700)
ThaiWx Station | | Change Station

Elev 1007 ft 18.77 °N, 98.97 °E | Updated 4 minutes ago

Partly Cloudy
Partly Cloudy
65.5 °F
Feels Like 65.5 °F
N
0.0
Wind Variable Wind from NE
Gusts 0.0 mph

Today
High -- | Low -- °F
--% Chance of Precip.
Yesterday
High -- | Low -- °F
Precip. -- in
Pressure 29.95 in
Visibility 6.2 miles
Clouds Few 4000 ft
Dew Point 62 °F
Humidity 88%
Rainfall 0.00 in
Snow Depth Not available.
6:46 AM 5:48 PM
Waxing Gibbous, 86% visible
METAR VTCC 102200Z 00000KT 9999 FEW040 18/16 Q1014 A2995 NOSIG
Pressure 29.95 in
Visibility 6.2 miles
Clouds Few 4000 ft
Dew Point 62 °F
Humidity 88%
Rainfall 0.00 in
Snow Depth Not available.
6:46 AM 5:48 PM
Waxing Gibbous, 86% visible
METAR VTCC 102200Z 00000KT 9999 FEW040 18/16 Q1014 A2995 NOSIG

10-Day Weather Forecast

No radar image for this location.
×

Almanac

Astronomy

Dec. 11, 2016 Rise Set
Actual Time
Civil Twilight
Nautical Twilight
Astronomical Twilight
Moon
Length of Visible Light
Length of Day
Tomorrow will be .
, % of the Moon is Illuminated

Today's Extremes

Country Highs Country Lows

Community

WunderPhotos

Upload Photos

1,956,672 photos uploaded!

WunderBlog® & News

Nearby

Air Quality

  Air Quality AQ Index Pollutant
Not available.

Snow Depth

Station Depth Elevation

Earthquake Activity

City Distance Mag. Time & Date
Minimum magnitude displayed is 2.5.

Coastal Water Temperatures

Place Temperature

Stations

Nearby Weather Stations

Station Location Temp. Windchill Dew Point Humidity Wind Precip. Elev Updated Type